sensor_id;sensor_type;location;lat;lon;timestamp;pressure;altitude;pressure_sealevel;temperature;humidity
5883;BME280;2967;51.488;6.618;2023-02-19T00:00:30;101496.84;;;11.74;100.00
5883;BME280;2967;51.488;6.618;2023-02-19T00:05:35;101478.19;;;11.76;100.00
5883;BME280;2967;51.488;6.618;2023-02-19T00:10:37;101489.69;;;11.61;100.00
5883;BME280;2967;51.488;6.618;2023-02-19T00:15:40;101480.78;;;11.62;100.00
5883;BME280;2967;51.488;6.618;2023-02-19T00:20:44;101475.81;;;11.56;100.00
5883;BME280;2967;51.488;6.618;2023-02-19T00:25:46;101470.09;;;11.63;100.00
5883;BME280;2967;51.488;6.618;2023-02-19T00:30:49;101458.00;;;11.59;100.00
5883;BME280;2967;51.488;6.618;2023-02-19T00:35:53;101449.50;;;11.53;100.00
5883;BME280;2967;51.488;6.618;2023-02-19T00:40:57;101463.97;;;11.63;100.00
5883;BME280;2967;51.488;6.618;2023-02-19T00:46:00;101454.22;;;11.63;100.00
5883;BME280;2967;51.488;6.618;2023-02-19T00:51:04;101446.34;;;11.62;100.00
5883;BME280;2967;51.488;6.618;2023-02-19T00:56:07;101458.28;;;11.69;100.00
5883;BME280;2967;51.488;6.618;2023-02-19T01:01:10;101455.91;;;11.64;100.00
5883;BME280;2967;51.488;6.618;2023-02-19T01:06:16;101459.31;;;11.66;100.00
5883;BME280;2967;51.488;6.618;2023-02-19T01:11:19;101466.19;;;11.55;100.00
5883;BME280;2967;51.488;6.618;2023-02-19T01:16:22;101460.66;;;11.59;100.00
5883;BME280;2967;51.488;6.618;2023-02-19T01:21:27;101460.66;;;11.59;100.00
5883;BME280;2967;51.488;6.618;2023-02-19T01:26:31;101459.78;;;11.59;100.00
5883;BME280;2967;51.488;6.618;2023-02-19T01:31:35;101464.31;;;11.57;100.00
5883;BME280;2967;51.488;6.618;2023-02-19T01:36:42;101462.91;;;11.50;100.00
5883;BME280;2967;51.488;6.618;2023-02-19T01:41:45;101473.25;;;11.54;100.00
5883;BME280;2967;51.488;6.618;2023-02-19T01:46:47;101482.91;;;11.55;100.00
5883;BME280;2967;51.488;6.618;2023-02-19T01:52:02;101471.47;;;11.55;100.00
5883;BME280;2967;51.488;6.618;2023-02-19T01:57:09;101475.06;;;11.54;100.00
5883;BME280;2967;51.488;6.618;2023-02-19T02:02:15;101477.97;;;11.49;100.00
5883;BME280;2967;51.488;6.618;2023-02-19T02:07:19;101472.41;;;11.54;100.00
5883;BME280;2967;51.488;6.618;2023-02-19T02:12:40;101487.63;;;11.50;100.00
5883;BME280;2967;51.488;6.618;2023-02-19T02:17:50;101482.16;;;11.53;100.00
5883;BME280;2967;51.488;6.618;2023-02-19T02:22:59;101483.28;;;11.49;100.00
5883;BME280;2967;51.488;6.618;2023-02-19T02:28:19;101477.78;;;11.52;100.00
5883;BME280;2967;51.488;6.618;2023-02-19T02:33:30;101477.50;;;11.58;100.00
5883;BME280;2967;51.488;6.618;2023-02-19T02:38:38;101481.84;;;11.59;100.00
5883;BME280;2967;51.488;6.618;2023-02-19T02:43:42;101479.50;;;11.53;100.00
5883;BME280;2967;51.488;6.618;2023-02-19T02:48:48;101473.88;;;11.59;100.00
5883;BME280;2967;51.488;6.618;2023-02-19T02:53:56;101482.06;;;11.55;100.00
5883;BME280;2967;51.488;6.618;2023-02-19T02:59:23;101490.81;;;11.57;100.00
5883;BME280;2967;51.488;6.618;2023-02-19T03:04:30;101497.75;;;11.59;100.00
5883;BME280;2967;51.488;6.618;2023-02-19T03:09:36;101497.28;;;11.51;100.00
5883;BME280;2967;51.488;6.618;2023-02-19T03:14:46;101502.41;;;11.54;100.00
5883;BME280;2967;51.488;6.618;2023-02-19T03:20:11;101509.78;;;11.49;100.00
5883;BME280;2967;51.488;6.618;2023-02-19T03:25:19;101511.31;;;11.38;100.00
5883;BME280;2967;51.488;6.618;2023-02-19T03:30:44;101507.72;;;11.39;100.00
5883;BME280;2967;51.488;6.618;2023-02-19T03:35:52;101517.59;;;11.51;100.00
5883;BME280;2967;51.488;6.618;2023-02-19T03:41:03;101526.34;;;11.53;100.00
5883;BME280;2967;51.488;6.618;2023-02-19T03:46:12;101528.06;;;11.54;100.00
5883;BME280;2967;51.488;6.618;2023-02-19T03:51:31;101537.78;;;11.53;100.00
5883;BME280;2967;51.488;6.618;2023-02-19T03:56:44;101536.69;;;11.42;100.00
5883;BME280;2967;51.488;6.618;2023-02-19T04:01:53;101541.56;;;11.49;100.00
5883;BME280;2967;51.488;6.618;2023-02-19T04:07:00;101562.34;;;11.57;100.00
5883;BME280;2967;51.488;6.618;2023-02-19T04:12:07;101564.28;;;11.53;100.00
5883;BME280;2967;51.488;6.618;2023-02-19T04:17:16;101575.91;;;11.51;100.00
5883;BME280;2967;51.488;6.618;2023-02-19T04:22:23;101576.16;;;11.46;100.00
5883;BME280;2967;51.488;6.618;2023-02-19T04:27:26;101590.53;;;11.42;100.00
5883;BME280;2967;51.488;6.618;2023-02-19T04:32:28;101587.88;;;11.27;100.00
5883;BME280;2967;51.488;6.618;2023-02-19T04:37:32;101594.81;;;11.29;100.00
5883;BME280;2967;51.488;6.618;2023-02-19T04:42:35;101607.31;;;11.10;100.00
5883;BME280;2967;51.488;6.618;2023-02-19T04:47:37;101600.66;;;11.19;100.00
5883;BME280;2967;51.488;6.618;2023-02-19T04:52:41;101596.94;;;11.23;100.00
5883;BME280;2967;51.488;6.618;2023-02-19T04:57:44;101608.53;;;11.20;100.00
5883;BME280;2967;51.488;6.618;2023-02-19T05:02:47;101616.66;;;11.17;100.00
5883;BME280;2967;51.488;6.618;2023-02-19T05:07:51;101619.97;;;11.21;100.00
5883;BME280;2967;51.488;6.618;2023-02-19T05:12:54;101635.47;;;11.28;100.00
5883;BME280;2967;51.488;6.618;2023-02-19T05:17:58;101559.69;;;10.78;100.00
5883;BME280;2967;51.488;6.618;2023-02-19T05:23:02;101648.03;;;11.25;100.00
5883;BME280;2967;51.488;6.618;2023-02-19T05:28:05;101652.69;;;11.20;100.00
5883;BME280;2967;51.488;6.618;2023-02-19T05:33:19;101661.13;;;11.11;100.00
5883;BME280;2967;51.488;6.618;2023-02-19T05:38:23;101666.28;;;11.14;100.00
5883;BME280;2967;51.488;6.618;2023-02-19T05:43:26;101669.88;;;11.13;100.00
5883;BME280;2967;51.488;6.618;2023-02-19T05:48:28;101672.59;;;11.11;100.00
5883;BME280;2967;51.488;6.618;2023-02-19T05:53:33;101666.75;;;11.05;100.00
5883;BME280;2967;51.488;6.618;2023-02-19T05:58:36;101673.06;;;11.02;100.00
5883;BME280;2967;51.488;6.618;2023-02-19T06:03:39;101675.66;;;11.04;100.00
5883;BME280;2967;51.488;6.618;2023-02-19T06:08:44;101681.41;;;10.95;100.00
5883;BME280;2967;51.488;6.618;2023-02-19T06:13:47;101683.38;;;10.91;100.00
5883;BME280;2967;51.488;6.618;2023-02-19T06:18:50;101692.31;;;10.89;100.00
5883;BME280;2967;51.488;6.618;2023-02-19T06:23:54;101702.13;;;10.87;100.00
5883;BME280;2967;51.488;6.618;2023-02-19T06:28:57;101712.72;;;10.87;100.00
5883;BME280;2967;51.488;6.618;2023-02-19T06:34:02;101702.59;;;10.78;100.00
5883;BME280;2967;51.488;6.618;2023-02-19T06:39:06;101716.53;;;10.81;100.00
5883;BME280;2967;51.488;6.618;2023-02-19T06:44:09;101713.25;;;10.76;100.00
5883;BME280;2967;51.488;6.618;2023-02-19T06:49:12;101724.53;;;10.80;100.00
5883;BME280;2967;51.488;6.618;2023-02-19T06:54:17;101745.41;;;10.86;100.00
5883;BME280;2967;51.488;6.618;2023-02-19T06:59:20;101753.72;;;10.95;100.00
5883;BME280;2967;51.488;6.618;2023-02-19T07:04:22;101754.91;;;10.90;100.00
5883;BME280;2967;51.488;6.618;2023-02-19T07:09:26;101766.59;;;10.86;100.00
5883;BME280;2967;51.488;6.618;2023-02-19T07:14:30;101777.19;;;10.86;100.00
5883;BME280;2967;51.488;6.618;2023-02-19T07:19:32;101783.78;;;10.94;100.00
5883;BME280;2967;51.488;6.618;2023-02-19T07:24:37;101796.03;;;10.97;100.00
5883;BME280;2967;51.488;6.618;2023-02-19T07:29:39;101805.50;;;11.01;100.00
5883;BME280;2967;51.488;6.618;2023-02-19T07:34:42;101819.44;;;11.04;100.00
5883;BME280;2967;51.488;6.618;2023-02-19T07:39:46;101822.09;;;11.04;100.00
5883;BME280;2967;51.488;6.618;2023-02-19T07:44:49;101738.38;;;10.51;100.00
5883;BME280;2967;51.488;6.618;2023-02-19T07:49:51;101841.56;;;11.03;100.00
5883;BME280;2967;51.488;6.618;2023-02-19T07:54:55;101841.13;;;11.12;100.00
5883;BME280;2967;51.488;6.618;2023-02-19T07:59:58;101851.22;;;11.04;100.00
5883;BME280;2967;51.488;6.618;2023-02-19T08:05:01;101870.88;;;11.00;100.00
5883;BME280;2967;51.488;6.618;2023-02-19T08:10:06;101867.22;;;11.03;100.00
5883;BME280;2967;51.488;6.618;2023-02-19T08:15:26;101868.38;;;10.97;100.00
5883;BME280;2967;51.488;6.618;2023-02-19T08:20:28;101872.81;;;11.14;100.00
5883;BME280;2967;51.488;6.618;2023-02-19T08:25:33;101883.09;;;11.20;100.00
5883;BME280;2967;51.488;6.618;2023-02-19T08:30:37;101879.84;;;11.15;100.00
5883;BME280;2967;51.488;6.618;2023-02-19T08:35:39;101882.47;;;11.15;100.00
5883;BME280;2967;51.488;6.618;2023-02-19T08:40:44;101880.84;;;11.12;100.00
5883;BME280;2967;51.488;6.618;2023-02-19T08:45:47;101886.06;;;11.14;100.00
5883;BME280;2967;51.488;6.618;2023-02-19T08:50:54;101867.44;;;10.98;100.00
5883;BME280;2967;51.488;6.618;2023-02-19T08:56:03;101898.94;;;11.21;100.00
5883;BME280;2967;51.488;6.618;2023-02-19T09:01:07;101895.34;;;11.39;100.00
5883;BME280;2967;51.488;6.618;2023-02-19T09:06:14;101924.03;;;11.31;100.00
5883;BME280;2967;51.488;6.618;2023-02-19T09:11:19;101887.84;;;11.13;100.00
5883;BME280;2967;51.488;6.618;2023-02-19T09:16:22;101940.28;;;11.41;100.00
5883;BME280;2967;51.488;6.618;2023-02-19T09:21:25;101952.00;;;11.37;100.00
5883;BME280;2967;51.488;6.618;2023-02-19T09:26:29;101962.19;;;11.44;100.00
5883;BME280;2967;51.488;6.618;2023-02-19T09:31:31;101955.97;;;11.45;100.00
5883;BME280;2967;51.488;6.618;2023-02-19T09:36:35;101936.03;;;11.38;100.00
5883;BME280;2967;51.488;6.618;2023-02-19T09:41:43;101963.19;;;11.42;100.00
5883;BME280;2967;51.488;6.618;2023-02-19T09:46:48;101957.47;;;11.34;100.00
5883;BME280;2967;51.488;6.618;2023-02-19T09:51:55;101959.66;;;11.43;100.00
5883;BME280;2967;51.488;6.618;2023-02-19T09:57:02;101981.75;;;11.25;100.00
5883;BME280;2967;51.488;6.618;2023-02-19T10:02:11;101996.31;;;11.33;100.00
5883;BME280;2967;51.488;6.618;2023-02-19T10:07:16;102009.19;;;11.41;100.00
5883;BME280;2967;51.488;6.618;2023-02-19T10:12:24;102020.63;;;11.60;100.00
5883;BME280;2967;51.488;6.618;2023-02-19T10:17:30;102015.66;;;11.71;100.00
5883;BME280;2967;51.488;6.618;2023-02-19T10:22:36;102032.81;;;11.64;100.00
5883;BME280;2967;51.488;6.618;2023-02-19T10:27:41;102044.59;;;11.75;100.00
5883;BME280;2967;51.488;6.618;2023-02-19T10:32:57;102054.97;;;11.80;100.00
5883;BME280;2967;51.488;6.618;2023-02-19T10:38:01;102051.16;;;11.85;100.00
5883;BME280;2967;51.488;6.618;2023-02-19T10:43:19;102056.94;;;11.93;100.00
5883;BME280;2967;51.488;6.618;2023-02-19T10:48:27;102080.75;;;11.76;100.00
5883;BME280;2967;51.488;6.618;2023-02-19T10:53:49;102080.84;;;11.75;100.00
5883;BME280;2967;51.488;6.618;2023-02-19T10:58:53;102081.38;;;11.64;100.00
5883;BME280;2967;51.488;6.618;2023-02-19T11:04:14;102086.13;;;11.58;100.00
5883;BME280;2967;51.488;6.618;2023-02-19T11:09:26;102100.00;;;11.63;100.00
5883;BME280;2967;51.488;6.618;2023-02-19T11:14:32;102098.16;;;11.65;100.00
5883;BME280;2967;51.488;6.618;2023-02-19T11:19:38;102095.34;;;11.68;100.00
5883;BME280;2967;51.488;6.618;2023-02-19T11:24:47;102105.56;;;11.75;100.00
5883;BME280;2967;51.488;6.618;2023-02-19T11:29:51;102093.84;;;11.62;100.00
5883;BME280;2967;51.488;6.618;2023-02-19T11:35:13;102090.59;;;11.56;100.00
5883;BME280;2967;51.488;6.618;2023-02-19T11:40:19;102073.03;;;11.53;100.00
5883;BME280;2967;51.488;6.618;2023-02-19T11:45:33;102075.34;;;11.61;100.00
5883;BME280;2967;51.488;6.618;2023-02-19T11:50:47;102077.00;;;11.45;100.00
5883;BME280;2967;51.488;6.618;2023-02-19T11:56:06;102083.81;;;11.50;100.00
5883;BME280;2967;51.488;6.618;2023-02-19T12:01:21;102098.09;;;11.46;100.00
5883;BME280;2967;51.488;6.618;2023-02-19T12:06:29;102100.28;;;11.20;100.00
5883;BME280;2967;51.488;6.618;2023-02-19T12:11:50;102093.97;;;11.22;100.00
5883;BME280;2967;51.488;6.618;2023-02-19T12:17:01;102098.72;;;11.16;100.00
5883;BME280;2967;51.488;6.618;2023-02-19T12:22:24;102097.34;;;11.26;100.00
5883;BME280;2967;51.488;6.618;2023-02-19T12:27:38;102098.63;;;11.36;100.00
5883;BME280;2967;51.488;6.618;2023-02-19T12:33:03;102083.81;;;11.13;100.00
5883;BME280;2967;51.488;6.618;2023-02-19T12:38:19;102100.47;;;11.52;100.00
5883;BME280;2967;51.488;6.618;2023-02-19T12:43:24;102102.34;;;11.50;100.00
5883;BME280;2967;51.488;6.618;2023-02-19T12:48:35;102114.44;;;11.56;100.00
5883;BME280;2967;51.488;6.618;2023-02-19T12:53:46;102102.25;;;11.52;100.00
5883;BME280;2967;51.488;6.618;2023-02-19T12:59:00;102103.28;;;11.49;100.00
5883;BME280;2967;51.488;6.618;2023-02-19T13:04:21;102102.97;;;11.55;100.00
5883;BME280;2967;51.488;6.618;2023-02-19T13:09:30;102057.47;;;11.29;100.00
5883;BME280;2967;51.488;6.618;2023-02-19T13:14:40;102084.75;;;11.49;100.00
5883;BME280;2967;51.488;6.618;2023-02-19T13:19:46;102115.22;;;11.76;100.00
5883;BME280;2967;51.488;6.618;2023-02-19T13:24:50;102110.50;;;11.83;100.00
5883;BME280;2967;51.488;6.618;2023-02-19T13:30:05;102123.66;;;11.84;100.00
5883;BME280;2967;51.488;6.618;2023-02-19T13:35:22;102131.06;;;11.78;100.00
5883;BME280;2967;51.488;6.618;2023-02-19T13:40:30;102148.13;;;11.54;100.00
5883;BME280;2967;51.488;6.618;2023-02-19T13:45:37;102145.03;;;11.44;100.00
5883;BME280;2967;51.488;6.618;2023-02-19T13:50:41;102159.41;;;11.39;100.00
5883;BME280;2967;51.488;6.618;2023-02-19T13:55:48;102157.84;;;11.35;100.00
5883;BME280;2967;51.488;6.618;2023-02-19T14:00:53;102090.75;;;10.97;100.00
5883;BME280;2967;51.488;6.618;2023-02-19T14:05:58;102161.78;;;11.45;100.00
5883;BME280;2967;51.488;6.618;2023-02-19T14:11:01;102174.97;;;11.46;100.00
5883;BME280;2967;51.488;6.618;2023-02-19T14:16:32;102178.47;;;11.28;100.00
5883;BME280;2967;51.488;6.618;2023-02-19T14:21:50;102184.63;;;11.29;100.00
5883;BME280;2967;51.488;6.618;2023-02-19T14:26:55;102188.78;;;11.34;100.00
5883;BME280;2967;51.488;6.618;2023-02-19T14:32:05;102190.84;;;11.46;100.00
5883;BME280;2967;51.488;6.618;2023-02-19T14:37:13;102196.47;;;11.40;100.00
5883;BME280;2967;51.488;6.618;2023-02-19T14:42:22;102196.97;;;11.48;100.00
5883;BME280;2967;51.488;6.618;2023-02-19T14:47:29;102171.53;;;11.26;100.00
5883;BME280;2967;51.488;6.618;2023-02-19T14:52:37;102165.81;;;11.35;100.00
5883;BME280;2967;51.488;6.618;2023-02-19T14:57:45;102182.69;;;11.51;100.00
5883;BME280;2967;51.488;6.618;2023-02-19T15:02:52;102174.53;;;11.55;100.00
5883;BME280;2967;51.488;6.618;2023-02-19T15:07:58;102172.16;;;11.69;100.00
5883;BME280;2967;51.488;6.618;2023-02-19T15:13:05;102168.22;;;11.59;100.00
5883;BME280;2967;51.488;6.618;2023-02-19T15:18:17;102142.81;;;11.54;100.00
5883;BME280;2967;51.488;6.618;2023-02-19T15:23:22;102139.81;;;11.43;100.00
5883;BME280;2967;51.488;6.618;2023-02-19T15:28:30;102133.44;;;11.28;100.00
5883;BME280;2967;51.488;6.618;2023-02-19T15:33:34;102131.28;;;11.36;100.00
5883;BME280;2967;51.488;6.618;2023-02-19T15:38:37;102124.00;;;11.23;100.00
5883;BME280;2967;51.488;6.618;2023-02-19T15:43:42;102124.78;;;11.25;100.00
5883;BME280;2967;51.488;6.618;2023-02-19T15:48:57;102140.94;;;11.19;100.00
5883;BME280;2967;51.488;6.618;2023-02-19T15:54:07;102128.06;;;11.11;100.00
5883;BME280;2967;51.488;6.618;2023-02-19T15:59:20;102151.53;;;11.19;100.00
5883;BME280;2967;51.488;6.618;2023-02-19T16:04:26;102161.81;;;11.06;100.00
5883;BME280;2967;51.488;6.618;2023-02-19T16:09:31;102169.97;;;11.02;100.00
5883;BME280;2967;51.488;6.618;2023-02-19T16:14:35;102178.00;;;11.00;100.00
5883;BME280;2967;51.488;6.618;2023-02-19T16:19:44;102190.50;;;10.97;100.00
5883;BME280;2967;51.488;6.618;2023-02-19T16:24:49;102182.22;;;10.84;100.00
5883;BME280;2967;51.488;6.618;2023-02-19T16:29:54;102196.78;;;10.74;100.00
5883;BME280;2967;51.488;6.618;2023-02-19T16:34:59;102192.97;;;10.81;100.00
5883;BME280;2967;51.488;6.618;2023-02-19T16:45:52;102225.88;;;10.54;100.00
5883;BME280;2967;51.488;6.618;2023-02-19T16:50:56;102246.84;;;10.59;100.00
5883;BME280;2967;51.488;6.618;2023-02-19T16:55:59;102228.06;;;10.45;100.00
5883;BME280;2967;51.488;6.618;2023-02-19T17:01:02;102271.41;;;10.62;100.00
5883;BME280;2967;51.488;6.618;2023-02-19T17:06:06;102267.25;;;10.57;100.00
5883;BME280;2967;51.488;6.618;2023-02-19T17:11:11;102267.19;;;10.58;100.00
5883;BME280;2967;51.488;6.618;2023-02-19T17:16:17;102279.91;;;10.49;100.00
5883;BME280;2967;51.488;6.618;2023-02-19T17:21:22;102276.97;;;10.35;100.00
5883;BME280;2967;51.488;6.618;2023-02-19T17:26:27;102247.88;;;10.14;100.00
5883;BME280;2967;51.488;6.618;2023-02-19T17:31:30;102283.84;;;10.39;100.00
5883;BME280;2967;51.488;6.618;2023-02-19T17:36:35;102276.25;;;10.32;100.00
5883;BME280;2967;51.488;6.618;2023-02-19T17:41:39;102291.13;;;10.34;100.00
5883;BME280;2967;51.488;6.618;2023-02-19T17:46:44;102303.63;;;10.31;100.00
5883;BME280;2967;51.488;6.618;2023-02-19T17:51:49;102295.25;;;10.20;100.00
5883;BME280;2967;51.488;6.618;2023-02-19T17:56:52;102322.88;;;10.11;100.00
5883;BME280;2967;51.488;6.618;2023-02-19T18:01:54;102328.25;;;10.10;100.00
5883;BME280;2967;51.488;6.618;2023-02-19T18:06:58;102338.06;;;10.06;100.00
5883;BME280;2967;51.488;6.618;2023-02-19T18:12:03;102338.22;;;10.02;100.00
5883;BME280;2967;51.488;6.618;2023-02-19T18:17:06;102331.88;;;10.07;100.00
5883;BME280;2967;51.488;6.618;2023-02-19T18:22:10;102332.66;;;10.09;100.00
5883;BME280;2967;51.488;6.618;2023-02-19T18:27:13;102335.38;;;10.08;100.00
5883;BME280;2967;51.488;6.618;2023-02-19T18:32:16;102348.69;;;10.05;100.00
5883;BME280;2967;51.488;6.618;2023-02-19T18:37:21;102346.94;;;10.05;100.00
5883;BME280;2967;51.488;6.618;2023-02-19T18:42:24;102346.16;;;10.02;100.00
5883;BME280;2967;51.488;6.618;2023-02-19T18:47:27;102348.69;;;10.05;100.00
5883;BME280;2967;51.488;6.618;2023-02-19T18:52:31;102352.34;;;10.01;100.00
5883;BME280;2967;51.488;6.618;2023-02-19T18:57:34;102356.84;;;9.99;100.00
5883;BME280;2967;51.488;6.618;2023-02-19T19:02:36;102357.63;;;10.02;100.00
5883;BME280;2967;51.488;6.618;2023-02-19T19:07:51;102366.78;;;9.92;100.00
5883;BME280;2967;51.488;6.618;2023-02-19T19:12:55;102380.44;;;9.80;100.00
5883;BME280;2967;51.488;6.618;2023-02-19T19:17:58;102372.03;;;9.69;100.00
5883;BME280;2967;51.488;6.618;2023-02-19T19:23:04;102381.31;;;9.81;100.00
5883;BME280;2967;51.488;6.618;2023-02-19T19:28:06;102385.66;;;9.82;100.00
5883;BME280;2967;51.488;6.618;2023-02-19T19:33:09;102375.69;;;9.90;100.00
5883;BME280;2967;51.488;6.618;2023-02-19T19:38:15;102350.34;;;9.84;100.00
5883;BME280;2967;51.488;6.618;2023-02-19T19:43:18;102356.38;;;9.88;100.00
5883;BME280;2967;51.488;6.618;2023-02-19T19:48:21;102360.00;;;9.85;100.00
5883;BME280;2967;51.488;6.618;2023-02-19T19:53:25;102373.63;;;9.98;100.00
5883;BME280;2967;51.488;6.618;2023-02-19T19:58:28;102387.44;;;9.81;100.00
5883;BME280;2967;51.488;6.618;2023-02-19T20:03:31;102389.00;;;9.87;100.00
5883;BME280;2967;51.488;6.618;2023-02-19T20:08:35;102390.75;;;9.88;100.00
5883;BME280;2967;51.488;6.618;2023-02-19T20:13:38;102382.56;;;9.94;100.00
5883;BME280;2967;51.488;6.618;2023-02-19T20:18:41;102389.81;;;9.89;100.00
5883;BME280;2967;51.488;6.618;2023-02-19T20:23:45;102394.34;;;9.85;100.00
5883;BME280;2967;51.488;6.618;2023-02-19T20:28:47;102391.72;;;9.85;100.00
5883;BME280;2967;51.488;6.618;2023-02-19T20:33:50;102392.81;;;9.80;100.00
5883;BME280;2967;51.488;6.618;2023-02-19T20:38:54;102391.84;;;9.82;100.00
5883;BME280;2967;51.488;6.618;2023-02-19T20:43:58;102417.03;;;9.68;100.00
5883;BME280;2967;51.488;6.618;2023-02-19T20:49:00;102423.38;;;9.62;100.00
5883;BME280;2967;51.488;6.618;2023-02-19T20:54:04;102416.84;;;9.48;100.00
5883;BME280;2967;51.488;6.618;2023-02-19T20:59:07;102403.03;;;9.40;100.00
5883;BME280;2967;51.488;6.618;2023-02-19T21:04:10;102405.72;;;9.38;100.00
5883;BME280;2967;51.488;6.618;2023-02-19T21:09:14;102405.56;;;9.43;100.00
5883;BME280;2967;51.488;6.618;2023-02-19T21:14:18;102394.47;;;9.33;100.00
5883;BME280;2967;51.488;6.618;2023-02-19T21:19:21;102360.00;;;9.12;100.00
5883;BME280;2967;51.488;6.618;2023-02-19T21:24:25;102419.03;;;9.35;100.00
5883;BME280;2967;51.488;6.618;2023-02-19T21:29:28;102424.91;;;9.19;100.00
5883;BME280;2967;51.488;6.618;2023-02-19T21:34:30;102425.03;;;9.14;100.00
5883;BME280;2967;51.488;6.618;2023-02-19T21:39:34;102420.03;;;8.79;100.00
5883;BME280;2967;51.488;6.618;2023-02-19T21:44:37;102403.41;;;8.76;100.00
5883;BME280;2967;51.488;6.618;2023-02-19T21:49:42;102391.63;;;8.87;100.00
5883;BME280;2967;51.488;6.618;2023-02-19T21:54:47;102383.75;;;8.86;100.00
5883;BME280;2967;51.488;6.618;2023-02-19T21:59:50;102397.47;;;8.69;100.00
5883;BME280;2967;51.488;6.618;2023-02-19T22:04:53;102378.09;;;8.43;100.00
5883;BME280;2967;51.488;6.618;2023-02-19T22:09:57;102399.22;;;8.41;100.00
5883;BME280;2967;51.488;6.618;2023-02-19T22:15:00;102407.25;;;8.38;100.00
5883;BME280;2967;51.488;6.618;2023-02-19T22:20:03;102366.59;;;8.16;100.00
5883;BME280;2967;51.488;6.618;2023-02-19T22:25:08;102402.25;;;8.29;100.00
5883;BME280;2967;51.488;6.618;2023-02-19T22:30:11;102396.19;;;8.26;100.00
5883;BME280;2967;51.488;6.618;2023-02-19T22:35:14;102397.66;;;8.36;100.00
5883;BME280;2967;51.488;6.618;2023-02-19T22:40:18;102408.63;;;8.22;100.00
5883;BME280;2967;51.488;6.618;2023-02-19T22:45:20;102406.94;;;8.20;100.00
5883;BME280;2967;51.488;6.618;2023-02-19T22:50:23;102407.03;;;7.85;100.00
5883;BME280;2967;51.488;6.618;2023-02-19T22:55:28;102406.03;;;7.59;100.00
5883;BME280;2967;51.488;6.618;2023-02-19T23:00:32;102414.22;;;7.80;100.00
5883;BME280;2967;51.488;6.618;2023-02-19T23:05:35;102352.44;;;7.60;100.00
5883;BME280;2967;51.488;6.618;2023-02-19T23:10:39;102396.81;;;7.74;100.00
5883;BME280;2967;51.488;6.618;2023-02-19T23:15:42;102390.75;;;7.71;100.00
5883;BME280;2967;51.488;6.618;2023-02-19T23:20:44;102401.00;;;7.50;100.00
5883;BME280;2967;51.488;6.618;2023-02-19T23:25:48;102399.06;;;7.56;100.00
5883;BME280;2967;51.488;6.618;2023-02-19T23:30:51;102393.56;;;7.65;100.00
5883;BME280;2967;51.488;6.618;2023-02-19T23:35:54;102382.44;;;7.54;100.00
5883;BME280;2967;51.488;6.618;2023-02-19T23:40:59;102354.63;;;7.44;100.00
5883;BME280;2967;51.488;6.618;2023-02-19T23:46:02;102375.56;;;7.80;100.00
5883;BME280;2967;51.488;6.618;2023-02-19T23:51:05;102364.53;;;7.68;100.00
5883;BME280;2967;51.488;6.618;2023-02-19T23:56:09;102343.63;;;7.61;100.00
